sensor_id;sensor_type;location;lat;lon;timestamp;P1;durP1;ratioP1;P2;durP2;ratioP2
4375;SDS011;2202;50.866;12.750;2022-10-04T00:02:19;8.87;;;5.17;;
4375;SDS011;2202;50.866;12.750;2022-10-04T00:04:50;10.60;;;4.37;;
4375;SDS011;2202;50.866;12.750;2022-10-04T00:07:24;5.70;;;3.70;;
4375;SDS011;2202;50.866;12.750;2022-10-04T00:09:55;4.97;;;3.43;;
4375;SDS011;2202;50.866;12.750;2022-10-04T00:12:25;7.03;;;4.03;;
4375;SDS011;2202;50.866;12.750;2022-10-04T00:14:54;14.10;;;4.40;;
4375;SDS011;2202;50.866;12.750;2022-10-04T00:17:24;9.33;;;4.30;;
4375;SDS011;2202;50.866;12.750;2022-10-04T00:19:55;8.90;;;3.43;;
4375;SDS011;2202;50.866;12.750;2022-10-04T00:22:24;5.90;;;3.70;;
4375;SDS011;2202;50.866;12.750;2022-10-04T00:33:35;11.27;;;3.60;;
4375;SDS011;2202;50.866;12.750;2022-10-04T00:42:22;6.00;;;3.60;;
4375;SDS011;2202;50.866;12.750;2022-10-04T00:45:25;8.97;;;3.97;;
4375;SDS011;2202;50.866;12.750;2022-10-04T00:48:00;7.50;;;4.33;;
4375;SDS011;2202;50.866;12.750;2022-10-04T00:50:41;6.00;;;3.70;;
4375;SDS011;2202;50.866;12.750;2022-10-04T00:53:16;6.30;;;3.67;;
4375;SDS011;2202;50.866;12.750;2022-10-04T00:55:47;11.43;;;4.67;;
4375;SDS011;2202;50.866;12.750;2022-10-04T00:58:19;6.53;;;4.53;;
4375;SDS011;2202;50.866;12.750;2022-10-04T01:00:50;9.37;;;3.60;;
4375;SDS011;2202;50.866;12.750;2022-10-04T01:03:20;6.60;;;3.80;;
4375;SDS011;2202;50.866;12.750;2022-10-04T01:05:55;8.50;;;3.60;;
4375;SDS011;2202;50.866;12.750;2022-10-04T01:08:26;6.40;;;3.80;;
4375;SDS011;2202;50.866;12.750;2022-10-04T01:10:57;7.63;;;2.93;;
4375;SDS011;2202;50.866;12.750;2022-10-04T01:13:30;4.60;;;3.40;;
4375;SDS011;2202;50.866;12.750;2022-10-04T01:16:03;9.70;;;3.40;;
4375;SDS011;2202;50.866;12.750;2022-10-04T01:18:38;7.43;;;4.03;;
4375;SDS011;2202;50.866;12.750;2022-10-04T01:21:06;5.77;;;3.20;;
4375;SDS011;2202;50.866;12.750;2022-10-04T01:23:36;8.40;;;4.30;;
4375;SDS011;2202;50.866;12.750;2022-10-04T01:26:06;5.17;;;3.70;;
4375;SDS011;2202;50.866;12.750;2022-10-04T01:29:08;6.80;;;3.33;;
4375;SDS011;2202;50.866;12.750;2022-10-04T01:31:38;12.63;;;3.93;;
4375;SDS011;2202;50.866;12.750;2022-10-04T01:34:08;7.77;;;3.47;;
4375;SDS011;2202;50.866;12.750;2022-10-04T01:36:38;9.10;;;3.93;;
4375;SDS011;2202;50.866;12.750;2022-10-04T01:39:06;7.13;;;3.87;;
4375;SDS011;2202;50.866;12.750;2022-10-04T01:41:42;7.27;;;3.80;;
4375;SDS011;2202;50.866;12.750;2022-10-04T01:44:15;7.00;;;3.50;;
4375;SDS011;2202;50.866;12.750;2022-10-04T01:46:48;6.67;;;4.20;;
4375;SDS011;2202;50.866;12.750;2022-10-04T01:49:17;7.80;;;4.03;;
4375;SDS011;2202;50.866;12.750;2022-10-04T01:51:52;8.70;;;4.70;;
4375;SDS011;2202;50.866;12.750;2022-10-04T01:54:29;7.87;;;4.33;;
4375;SDS011;2202;50.866;12.750;2022-10-04T01:56:59;6.77;;;3.90;;
4375;SDS011;2202;50.866;12.750;2022-10-04T01:59:33;7.63;;;3.80;;
4375;SDS011;2202;50.866;12.750;2022-10-04T02:02:06;10.10;;;3.47;;
4375;SDS011;2202;50.866;12.750;2022-10-04T02:04:36;6.40;;;4.00;;
4375;SDS011;2202;50.866;12.750;2022-10-04T02:07:10;8.13;;;3.50;;
4375;SDS011;2202;50.866;12.750;2022-10-04T02:09:41;7.50;;;3.20;;
4375;SDS011;2202;50.866;12.750;2022-10-04T02:12:13;5.93;;;4.37;;
4375;SDS011;2202;50.866;12.750;2022-10-04T02:14:43;8.07;;;3.53;;
4375;SDS011;2202;50.866;12.750;2022-10-04T02:17:17;10.40;;;3.93;;
4375;SDS011;2202;50.866;12.750;2022-10-04T02:19:46;9.00;;;4.17;;
4375;SDS011;2202;50.866;12.750;2022-10-04T02:22:14;5.77;;;3.03;;
4375;SDS011;2202;50.866;12.750;2022-10-04T02:24:44;10.80;;;4.10;;
4375;SDS011;2202;50.866;12.750;2022-10-04T02:27:13;7.80;;;3.50;;
4375;SDS011;2202;50.866;12.750;2022-10-04T02:29:40;7.10;;;3.83;;
4375;SDS011;2202;50.866;12.750;2022-10-04T02:32:07;9.30;;;3.80;;
4375;SDS011;2202;50.866;12.750;2022-10-04T02:34:49;5.20;;;3.50;;
4375;SDS011;2202;50.866;12.750;2022-10-04T02:37:17;9.53;;;4.27;;
4375;SDS011;2202;50.866;12.750;2022-10-04T02:39:48;10.23;;;3.77;;
4375;SDS011;2202;50.866;12.750;2022-10-04T02:42:19;9.20;;;3.53;;
4375;SDS011;2202;50.866;12.750;2022-10-04T02:44:54;9.57;;;3.60;;
4375;SDS011;2202;50.866;12.750;2022-10-04T02:47:26;9.30;;;3.60;;
4375;SDS011;2202;50.866;12.750;2022-10-04T02:49:57;10.20;;;4.00;;
4375;SDS011;2202;50.866;12.750;2022-10-04T02:52:30;6.70;;;3.50;;
4375;SDS011;2202;50.866;12.750;2022-10-04T02:55:05;6.13;;;3.60;;
4375;SDS011;2202;50.866;12.750;2022-10-04T02:57:40;11.60;;;5.07;;
4375;SDS011;2202;50.866;12.750;2022-10-04T03:00:09;12.30;;;3.70;;
4375;SDS011;2202;50.866;12.750;2022-10-04T03:05:40;5.20;;;3.00;;
4375;SDS011;2202;50.866;12.750;2022-10-04T03:08:08;4.40;;;2.90;;
4375;SDS011;2202;50.866;12.750;2022-10-04T03:10:37;6.20;;;3.40;;
4375;SDS011;2202;50.866;12.750;2022-10-04T03:13:07;12.17;;;3.30;;
4375;SDS011;2202;50.866;12.750;2022-10-04T03:15:35;10.63;;;4.10;;
4375;SDS011;2202;50.866;12.750;2022-10-04T03:18:03;6.13;;;4.27;;
4375;SDS011;2202;50.866;12.750;2022-10-04T03:20:30;7.03;;;3.30;;
4375;SDS011;2202;50.866;12.750;2022-10-04T03:23:02;6.90;;;3.53;;
4375;SDS011;2202;50.866;12.750;2022-10-04T03:25:34;7.23;;;3.27;;
4375;SDS011;2202;50.866;12.750;2022-10-04T03:28:09;7.13;;;3.50;;
4375;SDS011;2202;50.866;12.750;2022-10-04T03:30:36;9.17;;;3.30;;
4375;SDS011;2202;50.866;12.750;2022-10-04T03:33:09;7.17;;;3.90;;
4375;SDS011;2202;50.866;12.750;2022-10-04T03:35:41;4.40;;;3.20;;
4375;SDS011;2202;50.866;12.750;2022-10-04T03:38:11;7.70;;;3.87;;
4375;SDS011;2202;50.866;12.750;2022-10-04T03:40:42;7.00;;;3.67;;
4375;SDS011;2202;50.866;12.750;2022-10-04T03:43:15;6.80;;;4.83;;
4375;SDS011;2202;50.866;12.750;2022-10-04T03:45:43;8.47;;;3.73;;
4375;SDS011;2202;50.866;12.750;2022-10-04T03:48:11;8.03;;;3.83;;
4375;SDS011;2202;50.866;12.750;2022-10-04T03:50:42;8.13;;;4.00;;
4375;SDS011;2202;50.866;12.750;2022-10-04T03:53:22;8.63;;;4.00;;
4375;SDS011;2202;50.866;12.750;2022-10-04T03:55:54;9.87;;;4.73;;
4375;SDS011;2202;50.866;12.750;2022-10-04T03:58:22;6.23;;;4.20;;
4375;SDS011;2202;50.866;12.750;2022-10-04T04:00:55;12.00;;;4.00;;
4375;SDS011;2202;50.866;12.750;2022-10-04T04:03:31;8.13;;;4.60;;
4375;SDS011;2202;50.866;12.750;2022-10-04T04:06:08;8.70;;;4.37;;
4375;SDS011;2202;50.866;12.750;2022-10-04T04:08:42;11.80;;;4.10;;
4375;SDS011;2202;50.866;12.750;2022-10-04T04:11:15;13.93;;;5.30;;
4375;SDS011;2202;50.866;12.750;2022-10-04T04:13:47;7.63;;;3.97;;
4375;SDS011;2202;50.866;12.750;2022-10-04T04:16:19;13.03;;;4.87;;
4375;SDS011;2202;50.866;12.750;2022-10-04T04:18:50;7.10;;;4.20;;
4375;SDS011;2202;50.866;12.750;2022-10-04T04:21:18;8.13;;;5.23;;
4375;SDS011;2202;50.866;12.750;2022-10-04T04:23:49;12.33;;;4.50;;
4375;SDS011;2202;50.866;12.750;2022-10-04T04:26:22;12.37;;;4.60;;
4375;SDS011;2202;50.866;12.750;2022-10-04T04:28:53;7.70;;;4.10;;
4375;SDS011;2202;50.866;12.750;2022-10-04T04:31:23;8.77;;;4.20;;
4375;SDS011;2202;50.866;12.750;2022-10-04T04:33:54;8.47;;;4.33;;
4375;SDS011;2202;50.866;12.750;2022-10-04T04:36:24;10.53;;;4.40;;
4375;SDS011;2202;50.866;12.750;2022-10-04T04:38:52;6.33;;;4.67;;
4375;SDS011;2202;50.866;12.750;2022-10-04T04:41:38;8.00;;;5.70;;
4375;SDS011;2202;50.866;12.750;2022-10-04T04:44:12;7.97;;;4.23;;
4375;SDS011;2202;50.866;12.750;2022-10-04T04:46:43;10.53;;;5.23;;
4375;SDS011;2202;50.866;12.750;2022-10-04T04:49:10;8.73;;;6.40;;
4375;SDS011;2202;50.866;12.750;2022-10-04T04:51:39;10.73;;;5.33;;
4375;SDS011;2202;50.866;12.750;2022-10-04T04:54:11;16.83;;;8.30;;
4375;SDS011;2202;50.866;12.750;2022-10-04T04:56:41;12.27;;;6.00;;
4375;SDS011;2202;50.866;12.750;2022-10-04T04:59:10;8.93;;;5.30;;
4375;SDS011;2202;50.866;12.750;2022-10-04T05:01:40;9.57;;;4.73;;
4375;SDS011;2202;50.866;12.750;2022-10-04T05:04:14;8.20;;;4.50;;
4375;SDS011;2202;50.866;12.750;2022-10-04T05:06:44;11.50;;;5.07;;
4375;SDS011;2202;50.866;12.750;2022-10-04T05:09:22;8.20;;;3.90;;
4375;SDS011;2202;50.866;12.750;2022-10-04T05:11:51;8.50;;;4.27;;
4375;SDS011;2202;50.866;12.750;2022-10-04T05:14:22;6.03;;;3.73;;
4375;SDS011;2202;50.866;12.750;2022-10-04T05:16:49;7.30;;;4.57;;
4375;SDS011;2202;50.866;12.750;2022-10-04T05:19:19;10.90;;;4.60;;
4375;SDS011;2202;50.866;12.750;2022-10-04T05:21:50;11.17;;;4.60;;
4375;SDS011;2202;50.866;12.750;2022-10-04T05:24:19;11.00;;;5.20;;
4375;SDS011;2202;50.866;12.750;2022-10-04T05:26:49;5.60;;;3.93;;
4375;SDS011;2202;50.866;12.750;2022-10-04T05:29:20;7.10;;;4.13;;
4375;SDS011;2202;50.866;12.750;2022-10-04T05:31:52;10.73;;;5.50;;
4375;SDS011;2202;50.866;12.750;2022-10-04T05:34:28;10.33;;;5.43;;
4375;SDS011;2202;50.866;12.750;2022-10-04T05:37:08;10.17;;;5.53;;
4375;SDS011;2202;50.866;12.750;2022-10-04T05:39:47;23.83;;;6.33;;
4375;SDS011;2202;50.866;12.750;2022-10-04T05:42:24;7.03;;;4.10;;
4375;SDS011;2202;50.866;12.750;2022-10-04T05:45:01;11.30;;;4.43;;
4375;SDS011;2202;50.866;12.750;2022-10-04T05:47:40;9.60;;;5.10;;
4375;SDS011;2202;50.866;12.750;2022-10-04T05:50:12;9.67;;;5.10;;
4375;SDS011;2202;50.866;12.750;2022-10-04T05:52:41;7.63;;;5.17;;
4375;SDS011;2202;50.866;12.750;2022-10-04T05:55:14;10.80;;;4.27;;
4375;SDS011;2202;50.866;12.750;2022-10-04T05:57:49;7.30;;;4.17;;
4375;SDS011;2202;50.866;12.750;2022-10-04T06:00:44;11.40;;;4.93;;
4375;SDS011;2202;50.866;12.750;2022-10-04T06:03:23;7.43;;;4.70;;
4375;SDS011;2202;50.866;12.750;2022-10-04T06:05:59;9.77;;;4.90;;
4375;SDS011;2202;50.866;12.750;2022-10-04T06:08:35;10.17;;;4.67;;
4375;SDS011;2202;50.866;12.750;2022-10-04T06:11:16;8.40;;;4.50;;
4375;SDS011;2202;50.866;12.750;2022-10-04T06:17:00;9.43;;;4.77;;
4375;SDS011;2202;50.866;12.750;2022-10-04T06:19:59;5.53;;;4.60;;
4375;SDS011;2202;50.866;12.750;2022-10-04T06:22:41;13.80;;;4.93;;
4375;SDS011;2202;50.866;12.750;2022-10-04T06:25:10;7.37;;;4.57;;
4375;SDS011;2202;50.866;12.750;2022-10-04T06:27:43;7.33;;;4.37;;
4375;SDS011;2202;50.866;12.750;2022-10-04T06:30:18;6.07;;;3.80;;
4375;SDS011;2202;50.866;12.750;2022-10-04T06:32:52;9.83;;;4.50;;
4375;SDS011;2202;50.866;12.750;2022-10-04T06:35:50;4.77;;;3.80;;
4375;SDS011;2202;50.866;12.750;2022-10-04T06:38:36;11.40;;;3.73;;
4375;SDS011;2202;50.866;12.750;2022-10-04T06:41:34;4.97;;;3.10;;
4375;SDS011;2202;50.866;12.750;2022-10-04T06:44:27;5.37;;;3.37;;
4375;SDS011;2202;50.866;12.750;2022-10-04T06:47:06;14.30;;;3.93;;
4375;SDS011;2202;50.866;12.750;2022-10-04T06:49:46;9.73;;;3.40;;
4375;SDS011;2202;50.866;12.750;2022-10-04T06:52:24;6.20;;;3.40;;
4375;SDS011;2202;50.866;12.750;2022-10-04T07:01:11;6.10;;;3.43;;
4375;SDS011;2202;50.866;12.750;2022-10-04T07:03:48;12.00;;;4.30;;
4375;SDS011;2202;50.866;12.750;2022-10-04T07:06:23;7.70;;;4.10;;
4375;SDS011;2202;50.866;12.750;2022-10-04T07:08:54;9.47;;;3.40;;
4375;SDS011;2202;50.866;12.750;2022-10-04T07:11:24;7.20;;;3.80;;
4375;SDS011;2202;50.866;12.750;2022-10-04T07:13:56;7.30;;;3.23;;
4375;SDS011;2202;50.866;12.750;2022-10-04T07:16:35;6.23;;;3.93;;
4375;SDS011;2202;50.866;12.750;2022-10-04T07:19:26;8.00;;;4.60;;
4375;SDS011;2202;50.866;12.750;2022-10-04T07:22:02;11.10;;;5.30;;
4375;SDS011;2202;50.866;12.750;2022-10-04T07:24:43;9.10;;;4.10;;
4375;SDS011;2202;50.866;12.750;2022-10-04T07:27:17;7.63;;;5.47;;
4375;SDS011;2202;50.866;12.750;2022-10-04T07:29:51;9.60;;;4.80;;
4375;SDS011;2202;50.866;12.750;2022-10-04T07:32:19;8.90;;;4.17;;
4375;SDS011;2202;50.866;12.750;2022-10-04T07:34:50;9.87;;;4.13;;
4375;SDS011;2202;50.866;12.750;2022-10-04T07:37:24;8.50;;;3.73;;
4375;SDS011;2202;50.866;12.750;2022-10-04T07:39:55;5.20;;;3.50;;
4375;SDS011;2202;50.866;12.750;2022-10-04T07:42:27;8.20;;;3.93;;
4375;SDS011;2202;50.866;12.750;2022-10-04T07:47:41;10.37;;;4.07;;
4375;SDS011;2202;50.866;12.750;2022-10-04T07:50:18;7.90;;;3.90;;
4375;SDS011;2202;50.866;12.750;2022-10-04T07:52:53;10.97;;;4.20;;
4375;SDS011;2202;50.866;12.750;2022-10-04T07:55:25;7.27;;;4.20;;
4375;SDS011;2202;50.866;12.750;2022-10-04T07:58:00;9.10;;;4.10;;
4375;SDS011;2202;50.866;12.750;2022-10-04T08:00:38;5.07;;;3.70;;
4375;SDS011;2202;50.866;12.750;2022-10-04T08:03:17;6.10;;;4.30;;
4375;SDS011;2202;50.866;12.750;2022-10-04T08:06:08;9.00;;;3.60;;
4375;SDS011;2202;50.866;12.750;2022-10-04T08:08:48;10.63;;;3.93;;
4375;SDS011;2202;50.866;12.750;2022-10-04T08:11:31;5.93;;;3.33;;
4375;SDS011;2202;50.866;12.750;2022-10-04T08:14:12;10.03;;;3.80;;
4375;SDS011;2202;50.866;12.750;2022-10-04T08:16:54;11.03;;;3.50;;
4375;SDS011;2202;50.866;12.750;2022-10-04T08:19:35;5.13;;;3.73;;
4375;SDS011;2202;50.866;12.750;2022-10-04T08:22:12;6.87;;;3.50;;
4375;SDS011;2202;50.866;12.750;2022-10-04T08:24:52;6.77;;;3.80;;
4375;SDS011;2202;50.866;12.750;2022-10-04T08:27:32;8.40;;;3.60;;
4375;SDS011;2202;50.866;12.750;2022-10-04T08:30:09;8.00;;;3.93;;
4375;SDS011;2202;50.866;12.750;2022-10-04T08:32:43;10.40;;;4.30;;
4375;SDS011;2202;50.866;12.750;2022-10-04T08:35:29;7.23;;;4.07;;
4375;SDS011;2202;50.866;12.750;2022-10-04T08:38:04;7.10;;;3.17;;
4375;SDS011;2202;50.866;12.750;2022-10-04T08:40:56;9.83;;;4.73;;
4375;SDS011;2202;50.866;12.750;2022-10-04T08:43:56;9.10;;;3.60;;
4375;SDS011;2202;50.866;12.750;2022-10-04T08:50:09;7.00;;;3.60;;
4375;SDS011;2202;50.866;12.750;2022-10-04T08:53:10;6.07;;;3.30;;
4375;SDS011;2202;50.866;12.750;2022-10-04T08:56:11;8.53;;;3.37;;
4375;SDS011;2202;50.866;12.750;2022-10-04T08:58:48;10.50;;;3.50;;
4375;SDS011;2202;50.866;12.750;2022-10-04T09:04:40;5.00;;;3.30;;
4375;SDS011;2202;50.866;12.750;2022-10-04T09:07:31;11.10;;;2.90;;
4375;SDS011;2202;50.866;12.750;2022-10-04T09:13:13;11.73;;;3.40;;
4375;SDS011;2202;50.866;12.750;2022-10-04T09:15:52;9.20;;;2.90;;
4375;SDS011;2202;50.866;12.750;2022-10-04T09:18:21;9.27;;;2.87;;
4375;SDS011;2202;50.866;12.750;2022-10-04T09:20:59;8.67;;;3.10;;
4375;SDS011;2202;50.866;12.750;2022-10-04T09:23:42;6.63;;;2.60;;
4375;SDS011;2202;50.866;12.750;2022-10-04T09:26:22;7.57;;;3.70;;
4375;SDS011;2202;50.866;12.750;2022-10-04T09:35:15;7.63;;;3.60;;
4375;SDS011;2202;50.866;12.750;2022-10-04T09:38:08;7.63;;;3.20;;
4375;SDS011;2202;50.866;12.750;2022-10-04T09:47:05;7.77;;;3.50;;
4375;SDS011;2202;50.866;12.750;2022-10-04T09:50:03;11.03;;;2.60;;
4375;SDS011;2202;50.866;12.750;2022-10-04T09:52:53;9.50;;;2.80;;
4375;SDS011;2202;50.866;12.750;2022-10-04T09:55:33;11.50;;;3.60;;
4375;SDS011;2202;50.866;12.750;2022-10-04T09:58:23;10.10;;;3.03;;
4375;SDS011;2202;50.866;12.750;2022-10-04T10:01:09;9.70;;;3.37;;
4375;SDS011;2202;50.866;12.750;2022-10-04T10:03:53;8.93;;;3.17;;
4375;SDS011;2202;50.866;12.750;2022-10-04T10:06:36;11.00;;;3.53;;
4375;SDS011;2202;50.866;12.750;2022-10-04T10:09:22;8.77;;;2.77;;
4375;SDS011;2202;50.866;12.750;2022-10-04T10:12:16;7.37;;;2.83;;
4375;SDS011;2202;50.866;12.750;2022-10-04T10:15:12;7.80;;;3.27;;
4375;SDS011;2202;50.866;12.750;2022-10-04T10:17:48;9.40;;;2.63;;
4375;SDS011;2202;50.866;12.750;2022-10-04T10:20:25;11.30;;;3.30;;
4375;SDS011;2202;50.866;12.750;2022-10-04T10:26:07;8.70;;;2.90;;
4375;SDS011;2202;50.866;12.750;2022-10-04T10:29:15;10.77;;;3.13;;
4375;SDS011;2202;50.866;12.750;2022-10-04T10:32:08;9.70;;;2.63;;
4375;SDS011;2202;50.866;12.750;2022-10-04T10:34:57;11.27;;;3.77;;
4375;SDS011;2202;50.866;12.750;2022-10-04T10:37:46;13.90;;;2.70;;
4375;SDS011;2202;50.866;12.750;2022-10-04T10:40:31;11.27;;;2.63;;
4375;SDS011;2202;50.866;12.750;2022-10-04T10:43:30;9.27;;;2.07;;
4375;SDS011;2202;50.866;12.750;2022-10-04T10:46:23;10.50;;;2.97;;
4375;SDS011;2202;50.866;12.750;2022-10-04T10:49:07;10.77;;;2.63;;
4375;SDS011;2202;50.866;12.750;2022-10-04T10:54:47;10.63;;;2.23;;
4375;SDS011;2202;50.866;12.750;2022-10-04T10:57:37;9.90;;;2.13;;
4375;SDS011;2202;50.866;12.750;2022-10-04T11:00:23;9.03;;;3.10;;
4375;SDS011;2202;50.866;12.750;2022-10-04T11:03:34;11.53;;;1.90;;
4375;SDS011;2202;50.866;12.750;2022-10-04T11:06:33;8.50;;;1.60;;
4375;SDS011;2202;50.866;12.750;2022-10-04T11:09:30;5.43;;;1.80;;
4375;SDS011;2202;50.866;12.750;2022-10-04T11:12:17;21.00;;;2.00;;
4375;SDS011;2202;50.866;12.750;2022-10-04T11:18:16;5.10;;;1.50;;
4375;SDS011;2202;50.866;12.750;2022-10-04T11:21:19;5.53;;;1.47;;
4375;SDS011;2202;50.866;12.750;2022-10-04T11:27:11;3.20;;;1.20;;
4375;SDS011;2202;50.866;12.750;2022-10-04T11:30:02;6.73;;;2.50;;
4375;SDS011;2202;50.866;12.750;2022-10-04T11:32:46;4.20;;;1.80;;
4375;SDS011;2202;50.866;12.750;2022-10-04T11:35:37;2.87;;;1.30;;
4375;SDS011;2202;50.866;12.750;2022-10-04T11:38:31;4.00;;;1.80;;
4375;SDS011;2202;50.866;12.750;2022-10-04T11:41:12;1.97;;;1.27;;
4375;SDS011;2202;50.866;12.750;2022-10-04T11:43:53;3.90;;;1.37;;
4375;SDS011;2202;50.866;12.750;2022-10-04T11:46:34;4.23;;;1.20;;
4375;SDS011;2202;50.866;12.750;2022-10-04T11:49:17;3.40;;;1.60;;
4375;SDS011;2202;50.866;12.750;2022-10-04T11:52:14;4.43;;;2.10;;
4375;SDS011;2202;50.866;12.750;2022-10-04T11:55:19;3.33;;;1.20;;
4375;SDS011;2202;50.866;12.750;2022-10-04T11:58:20;4.03;;;1.33;;
4375;SDS011;2202;50.866;12.750;2022-10-04T12:04:03;2.07;;;1.43;;
4375;SDS011;2202;50.866;12.750;2022-10-04T12:06:55;7.73;;;2.10;;
4375;SDS011;2202;50.866;12.750;2022-10-04T12:09:33;4.80;;;1.70;;
4375;SDS011;2202;50.866;12.750;2022-10-04T12:12:22;2.40;;;1.23;;
4375;SDS011;2202;50.866;12.750;2022-10-04T12:21:22;3.67;;;1.10;;
4375;SDS011;2202;50.866;12.750;2022-10-04T12:27:28;1.97;;;1.17;;
4375;SDS011;2202;50.866;12.750;2022-10-04T12:30:13;4.00;;;1.40;;
4375;SDS011;2202;50.866;12.750;2022-10-04T12:32:49;3.00;;;1.50;;
4375;SDS011;2202;50.866;12.750;2022-10-04T12:35:40;4.27;;;1.10;;
4375;SDS011;2202;50.866;12.750;2022-10-04T12:38:36;3.50;;;1.40;;
4375;SDS011;2202;50.866;12.750;2022-10-04T12:41:23;2.53;;;1.30;;
4375;SDS011;2202;50.866;12.750;2022-10-04T12:43:58;3.67;;;2.00;;
4375;SDS011;2202;50.866;12.750;2022-10-04T12:46:36;4.30;;;1.07;;
4375;SDS011;2202;50.866;12.750;2022-10-04T12:49:15;2.00;;;1.10;;
4375;SDS011;2202;50.866;12.750;2022-10-04T12:51:53;2.93;;;1.57;;
4375;SDS011;2202;50.866;12.750;2022-10-04T12:54:31;4.80;;;1.40;;
4375;SDS011;2202;50.866;12.750;2022-10-04T12:57:12;2.93;;;1.27;;
4375;SDS011;2202;50.866;12.750;2022-10-04T13:00:12;1.80;;;1.27;;
4375;SDS011;2202;50.866;12.750;2022-10-04T13:02:49;4.33;;;1.50;;
4375;SDS011;2202;50.866;12.750;2022-10-04T13:05:47;3.10;;;1.20;;
4375;SDS011;2202;50.866;12.750;2022-10-04T13:08:31;4.33;;;1.50;;
4375;SDS011;2202;50.866;12.750;2022-10-04T13:11:16;4.17;;;1.30;;
4375;SDS011;2202;50.866;12.750;2022-10-04T13:13:55;3.87;;;1.33;;
4375;SDS011;2202;50.866;12.750;2022-10-04T13:16:48;2.63;;;1.23;;
4375;SDS011;2202;50.866;12.750;2022-10-04T13:19:21;5.97;;;2.00;;
4375;SDS011;2202;50.866;12.750;2022-10-04T13:22:04;3.00;;;1.40;;
4375;SDS011;2202;50.866;12.750;2022-10-04T13:24:51;1.63;;;1.33;;
4375;SDS011;2202;50.866;12.750;2022-10-04T13:27:32;4.40;;;1.60;;
4375;SDS011;2202;50.866;12.750;2022-10-04T13:30:06;5.03;;;2.23;;
4375;SDS011;2202;50.866;12.750;2022-10-04T13:32:49;3.10;;;1.70;;
4375;SDS011;2202;50.866;12.750;2022-10-04T13:35:26;2.10;;;1.30;;
4375;SDS011;2202;50.866;12.750;2022-10-04T13:38:10;6.20;;;1.70;;
4375;SDS011;2202;50.866;12.750;2022-10-04T13:40:54;4.37;;;1.60;;
4375;SDS011;2202;50.866;12.750;2022-10-04T13:43:39;2.90;;;1.33;;
4375;SDS011;2202;50.866;12.750;2022-10-04T13:46:28;3.93;;;1.40;;
4375;SDS011;2202;50.866;12.750;2022-10-04T13:49:10;1.97;;;1.40;;
4375;SDS011;2202;50.866;12.750;2022-10-04T13:52:03;4.30;;;1.13;;
4375;SDS011;2202;50.866;12.750;2022-10-04T13:55:01;2.63;;;1.10;;
4375;SDS011;2202;50.866;12.750;2022-10-04T13:58:07;3.00;;;1.40;;
4375;SDS011;2202;50.866;12.750;2022-10-04T14:00:50;3.67;;;1.63;;
4375;SDS011;2202;50.866;12.750;2022-10-04T14:03:53;2.20;;;1.20;;
4375;SDS011;2202;50.866;12.750;2022-10-04T14:09:44;3.17;;;1.70;;
4375;SDS011;2202;50.866;12.750;2022-10-04T14:18:34;3.57;;;1.50;;
4375;SDS011;2202;50.866;12.750;2022-10-04T14:21:32;3.70;;;1.10;;
4375;SDS011;2202;50.866;12.750;2022-10-04T14:27:35;2.67;;;1.43;;
4375;SDS011;2202;50.866;12.750;2022-10-04T14:30:28;1.83;;;0.93;;
4375;SDS011;2202;50.866;12.750;2022-10-04T14:33:06;3.60;;;1.53;;
4375;SDS011;2202;50.866;12.750;2022-10-04T14:36:00;4.73;;;1.63;;
4375;SDS011;2202;50.866;12.750;2022-10-04T14:39:05;1.80;;;1.07;;
4375;SDS011;2202;50.866;12.750;2022-10-04T14:41:56;3.00;;;1.13;;
4375;SDS011;2202;50.866;12.750;2022-10-04T14:44:41;2.87;;;1.43;;
4375;SDS011;2202;50.866;12.750;2022-10-04T14:50:27;3.03;;;1.20;;
4375;SDS011;2202;50.866;12.750;2022-10-04T14:53:04;3.17;;;1.10;;
4375;SDS011;2202;50.866;12.750;2022-10-04T14:58:50;1.90;;;1.37;;
4375;SDS011;2202;50.866;12.750;2022-10-04T15:01:26;3.17;;;1.17;;
4375;SDS011;2202;50.866;12.750;2022-10-04T15:04:01;1.70;;;1.30;;
4375;SDS011;2202;50.866;12.750;2022-10-04T15:06:46;3.10;;;1.73;;
4375;SDS011;2202;50.866;12.750;2022-10-04T15:09:23;7.80;;;1.50;;
4375;SDS011;2202;50.866;12.750;2022-10-04T15:12:25;3.90;;;1.77;;
4375;SDS011;2202;50.866;12.750;2022-10-04T15:15:21;2.47;;;1.50;;
4375;SDS011;2202;50.866;12.750;2022-10-04T15:18:01;2.33;;;1.40;;
4375;SDS011;2202;50.866;12.750;2022-10-04T15:20:36;5.47;;;3.13;;
4375;SDS011;2202;50.866;12.750;2022-10-04T15:23:17;3.70;;;3.10;;
4375;SDS011;2202;50.866;12.750;2022-10-04T15:25:55;5.83;;;3.40;;
4375;SDS011;2202;50.866;12.750;2022-10-04T15:31:25;3.70;;;2.77;;
4375;SDS011;2202;50.866;12.750;2022-10-04T15:33:57;3.97;;;3.20;;
4375;SDS011;2202;50.866;12.750;2022-10-04T15:36:35;4.60;;;2.40;;
4375;SDS011;2202;50.866;12.750;2022-10-04T15:42:26;2.33;;;1.60;;
4375;SDS011;2202;50.866;12.750;2022-10-04T15:48:04;3.33;;;2.03;;
4375;SDS011;2202;50.866;12.750;2022-10-04T15:50:52;3.40;;;2.23;;
4375;SDS011;2202;50.866;12.750;2022-10-04T15:53:31;3.40;;;1.77;;
4375;SDS011;2202;50.866;12.750;2022-10-04T15:56:11;2.97;;;1.87;;
4375;SDS011;2202;50.866;12.750;2022-10-04T15:58:54;3.90;;;2.40;;
4375;SDS011;2202;50.866;12.750;2022-10-04T16:01:43;2.40;;;2.10;;
4375;SDS011;2202;50.866;12.750;2022-10-04T16:04:40;3.37;;;2.27;;
4375;SDS011;2202;50.866;12.750;2022-10-04T16:10:18;4.30;;;1.90;;
4375;SDS011;2202;50.866;12.750;2022-10-04T16:13:07;3.83;;;1.90;;
4375;SDS011;2202;50.866;12.750;2022-10-04T16:18:53;7.67;;;3.10;;
4375;SDS011;2202;50.866;12.750;2022-10-04T16:21:35;4.70;;;3.00;;
4375;SDS011;2202;50.866;12.750;2022-10-04T16:27:36;2.90;;;2.30;;
4375;SDS011;2202;50.866;12.750;2022-10-04T16:30:13;3.30;;;2.50;;
4375;SDS011;2202;50.866;12.750;2022-10-04T16:32:45;5.15;;;2.65;;
4375;SDS011;2202;50.866;12.750;2022-10-04T16:35:28;5.17;;;2.93;;
4375;SDS011;2202;50.866;12.750;2022-10-04T16:37:58;3.80;;;3.43;;
4375;SDS011;2202;50.866;12.750;2022-10-04T16:40:32;5.07;;;3.97;;
4375;SDS011;2202;50.866;12.750;2022-10-04T16:43:03;5.00;;;4.23;;
4375;SDS011;2202;50.866;12.750;2022-10-04T16:48:32;9.20;;;5.17;;
4375;SDS011;2202;50.866;12.750;2022-10-04T16:57:26;5.00;;;4.50;;
4375;SDS011;2202;50.866;12.750;2022-10-04T16:59:55;6.50;;;4.53;;
4375;SDS011;2202;50.866;12.750;2022-10-04T17:05:43;4.50;;;4.10;;
4375;SDS011;2202;50.866;12.750;2022-10-04T17:08:38;4.63;;;3.93;;
4375;SDS011;2202;50.866;12.750;2022-10-04T17:11:25;6.53;;;5.70;;
4375;SDS011;2202;50.866;12.750;2022-10-04T17:14:00;5.47;;;4.77;;
4375;SDS011;2202;50.866;12.750;2022-10-04T17:16:33;10.37;;;5.50;;
4375;SDS011;2202;50.866;12.750;2022-10-04T17:19:15;15.27;;;5.83;;
4375;SDS011;2202;50.866;12.750;2022-10-04T17:21:54;9.90;;;6.37;;
4375;SDS011;2202;50.866;12.750;2022-10-04T17:24:33;9.03;;;6.67;;
4375;SDS011;2202;50.866;12.750;2022-10-04T17:27:15;9.10;;;8.00;;
4375;SDS011;2202;50.866;12.750;2022-10-04T17:29:57;14.63;;;8.60;;
4375;SDS011;2202;50.866;12.750;2022-10-04T17:32:36;9.73;;;7.30;;
4375;SDS011;2202;50.866;12.750;2022-10-04T17:35:30;15.07;;;8.00;;
4375;SDS011;2202;50.866;12.750;2022-10-04T17:38:34;16.00;;;8.63;;
4375;SDS011;2202;50.866;12.750;2022-10-04T17:41:11;13.93;;;8.40;;
4375;SDS011;2202;50.866;12.750;2022-10-04T17:43:59;15.63;;;9.80;;
4375;SDS011;2202;50.866;12.750;2022-10-04T17:46:46;20.73;;;11.70;;
4375;SDS011;2202;50.866;12.750;2022-10-04T17:49:21;23.10;;;13.87;;
4375;SDS011;2202;50.866;12.750;2022-10-04T17:52:15;27.90;;;15.53;;
4375;SDS011;2202;50.866;12.750;2022-10-04T17:55:11;24.53;;;17.00;;
4375;SDS011;2202;50.866;12.750;2022-10-04T17:57:43;26.10;;;16.70;;
4375;SDS011;2202;50.866;12.750;2022-10-04T18:00:14;24.13;;;16.77;;
4375;SDS011;2202;50.866;12.750;2022-10-04T18:02:45;23.17;;;13.50;;
4375;SDS011;2202;50.866;12.750;2022-10-04T18:05:24;20.70;;;12.30;;
4375;SDS011;2202;50.866;12.750;2022-10-04T18:07:55;21.77;;;13.37;;
4375;SDS011;2202;50.866;12.750;2022-10-04T18:10:26;19.50;;;11.50;;
4375;SDS011;2202;50.866;12.750;2022-10-04T18:12:59;19.63;;;11.60;;
4375;SDS011;2202;50.866;12.750;2022-10-04T18:15:31;23.37;;;13.10;;
4375;SDS011;2202;50.866;12.750;2022-10-04T18:18:07;20.30;;;12.37;;